sensor_id;sensor_type;location;lat;lon;timestamp;P1;durP1;ratioP1;P2;durP2;ratioP2
75005;SDS011;63553;51.814;4.600;2023-02-15T00:01:09;10.17;;;8.20;;
75005;SDS011;63553;51.814;4.600;2023-02-15T00:03:35;11.70;;;8.00;;
75005;SDS011;63553;51.814;4.600;2023-02-15T00:06:01;12.57;;;8.63;;
75005;SDS011;63553;51.814;4.600;2023-02-15T00:08:27;11.77;;;8.48;;
75005;SDS011;63553;51.814;4.600;2023-02-15T00:10:53;12.13;;;8.60;;
75005;SDS011;63553;51.814;4.600;2023-02-15T00:13:18;11.13;;;8.65;;
75005;SDS011;63553;51.814;4.600;2023-02-15T00:15:43;11.43;;;8.77;;
75005;SDS011;63553;51.814;4.600;2023-02-15T00:18:09;10.70;;;8.17;;
75005;SDS011;63553;51.814;4.600;2023-02-15T00:20:34;11.85;;;8.57;;
75005;SDS011;63553;51.814;4.600;2023-02-15T00:23:00;10.25;;;8.20;;
75005;SDS011;63553;51.814;4.600;2023-02-15T00:25:25;10.63;;;8.20;;
75005;SDS011;63553;51.814;4.600;2023-02-15T00:27:50;10.18;;;8.13;;
75005;SDS011;63553;51.814;4.600;2023-02-15T00:30:16;10.10;;;8.50;;
75005;SDS011;63553;51.814;4.600;2023-02-15T00:32:41;11.00;;;8.38;;
75005;SDS011;63553;51.814;4.600;2023-02-15T00:35:07;10.57;;;7.57;;
75005;SDS011;63553;51.814;4.600;2023-02-15T00:37:34;9.55;;;7.72;;
75005;SDS011;63553;51.814;4.600;2023-02-15T00:39:59;9.70;;;7.63;;
75005;SDS011;63553;51.814;4.600;2023-02-15T00:42:25;9.50;;;7.40;;
75005;SDS011;63553;51.814;4.600;2023-02-15T00:44:50;11.30;;;8.20;;
75005;SDS011;63553;51.814;4.600;2023-02-15T00:47:15;11.77;;;8.63;;
75005;SDS011;63553;51.814;4.600;2023-02-15T00:49:41;11.60;;;8.32;;
75005;SDS011;63553;51.814;4.600;2023-02-15T00:52:06;10.10;;;7.87;;
75005;SDS011;63553;51.814;4.600;2023-02-15T00:54:31;9.60;;;7.57;;
75005;SDS011;63553;51.814;4.600;2023-02-15T00:56:57;10.47;;;8.23;;
75005;SDS011;63553;51.814;4.600;2023-02-15T00:59:22;10.50;;;7.63;;
75005;SDS011;63553;51.814;4.600;2023-02-15T01:01:47;11.37;;;8.27;;
75005;SDS011;63553;51.814;4.600;2023-02-15T01:04:12;10.67;;;7.77;;
75005;SDS011;63553;51.814;4.600;2023-02-15T01:06:38;9.45;;;7.55;;
75005;SDS011;63553;51.814;4.600;2023-02-15T01:09:03;10.20;;;8.17;;
75005;SDS011;63553;51.814;4.600;2023-02-15T01:11:28;9.88;;;7.45;;
75005;SDS011;63553;51.814;4.600;2023-02-15T01:13:55;9.77;;;8.10;;
75005;SDS011;63553;51.814;4.600;2023-02-15T01:16:22;11.38;;;8.48;;
75005;SDS011;63553;51.814;4.600;2023-02-15T01:18:49;10.00;;;8.23;;
75005;SDS011;63553;51.814;4.600;2023-02-15T01:21:16;8.35;;;7.22;;
75005;SDS011;63553;51.814;4.600;2023-02-15T01:23:43;9.98;;;7.88;;
75005;SDS011;63553;51.814;4.600;2023-02-15T01:26:09;10.50;;;7.60;;
75005;SDS011;63553;51.814;4.600;2023-02-15T01:28:35;11.32;;;7.50;;
75005;SDS011;63553;51.814;4.600;2023-02-15T01:31:11;8.60;;;6.97;;
75005;SDS011;63553;51.814;4.600;2023-02-15T01:33:38;8.98;;;7.35;;
75005;SDS011;63553;51.814;4.600;2023-02-15T01:36:04;8.57;;;7.20;;
75005;SDS011;63553;51.814;4.600;2023-02-15T01:38:30;9.82;;;7.57;;
75005;SDS011;63553;51.814;4.600;2023-02-15T01:40:55;9.13;;;6.97;;
75005;SDS011;63553;51.814;4.600;2023-02-15T01:43:45;9.77;;;7.65;;
75005;SDS011;63553;51.814;4.600;2023-02-15T01:46:14;10.02;;;7.70;;
75005;SDS011;63553;51.814;4.600;2023-02-15T01:48:49;10.90;;;7.80;;
75005;SDS011;63553;51.814;4.600;2023-02-15T01:51:18;10.52;;;7.80;;
75005;SDS011;63553;51.814;4.600;2023-02-15T01:53:51;10.88;;;7.88;;
75005;SDS011;63553;51.814;4.600;2023-02-15T01:56:23;10.13;;;7.82;;
75005;SDS011;63553;51.814;4.600;2023-02-15T01:58:52;9.05;;;7.40;;
75005;SDS011;63553;51.814;4.600;2023-02-15T02:01:20;9.70;;;7.30;;
75005;SDS011;63553;51.814;4.600;2023-02-15T02:04:02;10.45;;;7.32;;
75005;SDS011;63553;51.814;4.600;2023-02-15T02:06:30;9.57;;;7.43;;
75005;SDS011;63553;51.814;4.600;2023-02-15T02:08:57;10.82;;;6.78;;
75005;SDS011;63553;51.814;4.600;2023-02-15T02:11:23;9.32;;;7.15;;
75005;SDS011;63553;51.814;4.600;2023-02-15T02:13:48;9.30;;;7.15;;
75005;SDS011;63553;51.814;4.600;2023-02-15T02:16:18;8.98;;;7.57;;
75005;SDS011;63553;51.814;4.600;2023-02-15T02:18:56;10.35;;;7.10;;
75005;SDS011;63553;51.814;4.600;2023-02-15T02:27:18;9.38;;;7.28;;
75005;SDS011;63553;51.814;4.600;2023-02-15T02:43:20;8.47;;;6.70;;
75005;SDS011;63553;51.814;4.600;2023-02-15T02:45:50;10.02;;;7.32;;
75005;SDS011;63553;51.814;4.600;2023-02-15T02:48:22;9.20;;;7.13;;
75005;SDS011;63553;51.814;4.600;2023-02-15T02:50:51;9.63;;;7.55;;
75005;SDS011;63553;51.814;4.600;2023-02-15T02:53:17;8.90;;;7.47;;
75005;SDS011;63553;51.814;4.600;2023-02-15T02:58:18;8.77;;;6.93;;
75005;SDS011;63553;51.814;4.600;2023-02-15T03:00:50;9.98;;;7.40;;
75005;SDS011;63553;51.814;4.600;2023-02-15T03:05:50;9.40;;;7.47;;
75005;SDS011;63553;51.814;4.600;2023-02-15T03:08:20;8.88;;;7.22;;
75005;SDS011;63553;51.814;4.600;2023-02-15T03:10:53;10.00;;;7.05;;
75005;SDS011;63553;51.814;4.600;2023-02-15T03:13:20;10.45;;;7.88;;
75005;SDS011;63553;51.814;4.600;2023-02-15T03:15:47;8.45;;;7.25;;
75005;SDS011;63553;51.814;4.600;2023-02-15T03:18:35;11.13;;;7.40;;
75005;SDS011;63553;51.814;4.600;2023-02-15T03:21:03;9.48;;;6.88;;
75005;SDS011;63553;51.814;4.600;2023-02-15T03:23:31;8.60;;;7.07;;
75005;SDS011;63553;51.814;4.600;2023-02-15T03:26:03;8.38;;;6.63;;
75005;SDS011;63553;51.814;4.600;2023-02-15T03:28:35;9.85;;;7.50;;
75005;SDS011;63553;51.814;4.600;2023-02-15T03:31:06;8.38;;;6.60;;
75005;SDS011;63553;51.814;4.600;2023-02-15T03:33:34;9.88;;;6.57;;
75005;SDS011;63553;51.814;4.600;2023-02-15T03:38:46;8.70;;;6.63;;
75005;SDS011;63553;51.814;4.600;2023-02-15T03:41:17;9.68;;;7.20;;
75005;SDS011;63553;51.814;4.600;2023-02-15T03:44:07;9.75;;;7.03;;
75005;SDS011;63553;51.814;4.600;2023-02-15T03:46:59;9.45;;;7.20;;
75005;SDS011;63553;51.814;4.600;2023-02-15T03:52:11;8.15;;;6.45;;
75005;SDS011;63553;51.814;4.600;2023-02-15T03:54:40;8.45;;;6.32;;
75005;SDS011;63553;51.814;4.600;2023-02-15T03:57:10;9.00;;;7.05;;
75005;SDS011;63553;51.814;4.600;2023-02-15T04:00:08;8.75;;;6.78;;
75005;SDS011;63553;51.814;4.600;2023-02-15T04:05:27;8.80;;;6.37;;
75005;SDS011;63553;51.814;4.600;2023-02-15T04:07:52;8.37;;;6.60;;
75005;SDS011;63553;51.814;4.600;2023-02-15T04:10:17;8.77;;;6.47;;
75005;SDS011;63553;51.814;4.600;2023-02-15T04:13:01;7.88;;;6.78;;
75005;SDS011;63553;51.814;4.600;2023-02-15T04:15:26;8.53;;;6.90;;
75005;SDS011;63553;51.814;4.600;2023-02-15T04:18:10;9.30;;;6.75;;
75005;SDS011;63553;51.814;4.600;2023-02-15T04:20:35;10.27;;;7.22;;
75005;SDS011;63553;51.814;4.600;2023-02-15T04:23:19;9.00;;;6.55;;
75005;SDS011;63553;51.814;4.600;2023-02-15T04:26:04;10.52;;;7.07;;
75005;SDS011;63553;51.814;4.600;2023-02-15T04:28:29;8.43;;;6.68;;
75005;SDS011;63553;51.814;4.600;2023-02-15T04:30:55;9.07;;;6.68;;
75005;SDS011;63553;51.814;4.600;2023-02-15T04:33:20;8.57;;;6.73;;
75005;SDS011;63553;51.814;4.600;2023-02-15T04:35:46;8.57;;;6.70;;
75005;SDS011;63553;51.814;4.600;2023-02-15T04:38:11;10.05;;;7.03;;
75005;SDS011;63553;51.814;4.600;2023-02-15T04:40:36;8.30;;;6.50;;
75005;SDS011;63553;51.814;4.600;2023-02-15T04:43:02;9.13;;;6.97;;
75005;SDS011;63553;51.814;4.600;2023-02-15T04:45:27;9.17;;;6.90;;
75005;SDS011;63553;51.814;4.600;2023-02-15T04:47:52;10.33;;;6.77;;
75005;SDS011;63553;51.814;4.600;2023-02-15T04:50:18;7.83;;;6.53;;
75005;SDS011;63553;51.814;4.600;2023-02-15T04:52:43;9.07;;;6.73;;
75005;SDS011;63553;51.814;4.600;2023-02-15T04:55:08;8.23;;;6.23;;
75005;SDS011;63553;51.814;4.600;2023-02-15T04:57:34;10.27;;;6.53;;
75005;SDS011;63553;51.814;4.600;2023-02-15T04:59:59;10.13;;;7.45;;
75005;SDS011;63553;51.814;4.600;2023-02-15T05:02:24;7.97;;;6.45;;
75005;SDS011;63553;51.814;4.600;2023-02-15T05:04:50;8.75;;;6.60;;
75005;SDS011;63553;51.814;4.600;2023-02-15T05:07:15;9.63;;;6.83;;
75005;SDS011;63553;51.814;4.600;2023-02-15T05:09:41;8.23;;;6.50;;
75005;SDS011;63553;51.814;4.600;2023-02-15T05:12:06;9.32;;;6.85;;
75005;SDS011;63553;51.814;4.600;2023-02-15T05:14:32;9.10;;;7.57;;
75005;SDS011;63553;51.814;4.600;2023-02-15T05:16:57;8.83;;;6.53;;
75005;SDS011;63553;51.814;4.600;2023-02-15T05:19:25;8.02;;;7.00;;
75005;SDS011;63553;51.814;4.600;2023-02-15T05:21:51;9.25;;;6.72;;
75005;SDS011;63553;51.814;4.600;2023-02-15T05:24:16;9.17;;;6.77;;
75005;SDS011;63553;51.814;4.600;2023-02-15T05:27:00;9.15;;;7.07;;
75005;SDS011;63553;51.814;4.600;2023-02-15T05:29:44;10.05;;;7.22;;
75005;SDS011;63553;51.814;4.600;2023-02-15T05:32:11;9.47;;;7.07;;
75005;SDS011;63553;51.814;4.600;2023-02-15T05:34:38;9.73;;;7.10;;
75005;SDS011;63553;51.814;4.600;2023-02-15T05:37:03;9.60;;;7.40;;
75005;SDS011;63553;51.814;4.600;2023-02-15T05:39:28;11.18;;;7.85;;
75005;SDS011;63553;51.814;4.600;2023-02-15T05:41:53;9.73;;;6.73;;
75005;SDS011;63553;51.814;4.600;2023-02-15T05:44:19;9.27;;;6.67;;
75005;SDS011;63553;51.814;4.600;2023-02-15T05:46:44;9.47;;;7.33;;
75005;SDS011;63553;51.814;4.600;2023-02-15T05:49:09;10.80;;;7.30;;
75005;SDS011;63553;51.814;4.600;2023-02-15T05:51:35;10.47;;;7.73;;
75005;SDS011;63553;51.814;4.600;2023-02-15T05:54:00;9.87;;;7.23;;
75005;SDS011;63553;51.814;4.600;2023-02-15T05:56:25;11.13;;;7.00;;
75005;SDS011;63553;51.814;4.600;2023-02-15T05:58:52;106.63;;;25.58;;
75005;SDS011;63553;51.814;4.600;2023-02-15T06:01:18;72.35;;;17.55;;
75005;SDS011;63553;51.814;4.600;2023-02-15T06:03:46;54.17;;;16.20;;
75005;SDS011;63553;51.814;4.600;2023-02-15T06:06:11;142.10;;;28.42;;
75005;SDS011;63553;51.814;4.600;2023-02-15T06:08:37;89.17;;;27.07;;
75005;SDS011;63553;51.814;4.600;2023-02-15T06:11:03;60.67;;;20.75;;
75005;SDS011;63553;51.814;4.600;2023-02-15T06:13:29;40.42;;;14.93;;
75005;SDS011;63553;51.814;4.600;2023-02-15T06:15:55;39.10;;;13.90;;
75005;SDS011;63553;51.814;4.600;2023-02-15T06:18:20;31.10;;;13.07;;
75005;SDS011;63553;51.814;4.600;2023-02-15T06:20:46;35.47;;;14.00;;
75005;SDS011;63553;51.814;4.600;2023-02-15T06:23:12;25.58;;;11.88;;
75005;SDS011;63553;51.814;4.600;2023-02-15T06:25:37;23.83;;;11.30;;
75005;SDS011;63553;51.814;4.600;2023-02-15T06:28:03;31.20;;;13.07;;
75005;SDS011;63553;51.814;4.600;2023-02-15T06:30:28;21.55;;;10.90;;
75005;SDS011;63553;51.814;4.600;2023-02-15T06:32:53;21.03;;;11.20;;
75005;SDS011;63553;51.814;4.600;2023-02-15T06:35:19;20.00;;;10.93;;
75005;SDS011;63553;51.814;4.600;2023-02-15T06:37:45;23.98;;;10.98;;
75005;SDS011;63553;51.814;4.600;2023-02-15T06:40:11;16.42;;;9.05;;
75005;SDS011;63553;51.814;4.600;2023-02-15T06:42:37;18.85;;;9.02;;
75005;SDS011;63553;51.814;4.600;2023-02-15T06:45:02;16.92;;;9.55;;
75005;SDS011;63553;51.814;4.600;2023-02-15T06:47:28;13.18;;;8.50;;
75005;SDS011;63553;51.814;4.600;2023-02-15T06:49:54;14.45;;;8.85;;
75005;SDS011;63553;51.814;4.600;2023-02-15T06:52:19;15.15;;;9.85;;
75005;SDS011;63553;51.814;4.600;2023-02-15T06:54:45;17.38;;;9.70;;
75005;SDS011;63553;51.814;4.600;2023-02-15T06:57:10;13.17;;;9.13;;
75005;SDS011;63553;51.814;4.600;2023-02-15T06:59:35;15.93;;;9.90;;
75005;SDS011;63553;51.814;4.600;2023-02-15T07:02:01;15.77;;;9.47;;
75005;SDS011;63553;51.814;4.600;2023-02-15T07:04:26;17.93;;;8.90;;
75005;SDS011;63553;51.814;4.600;2023-02-15T07:06:53;19.17;;;10.30;;
75005;SDS011;63553;51.814;4.600;2023-02-15T07:09:19;15.77;;;9.35;;
75005;SDS011;63553;51.814;4.600;2023-02-15T07:11:44;15.40;;;9.33;;
75005;SDS011;63553;51.814;4.600;2023-02-15T07:14:28;13.13;;;8.55;;
75005;SDS011;63553;51.814;4.600;2023-02-15T07:16:53;14.25;;;9.35;;
75005;SDS011;63553;51.814;4.600;2023-02-15T07:19:19;17.50;;;10.37;;
75005;SDS011;63553;51.814;4.600;2023-02-15T07:21:44;15.82;;;9.05;;
75005;SDS011;63553;51.814;4.600;2023-02-15T07:24:10;16.23;;;9.20;;
75005;SDS011;63553;51.814;4.600;2023-02-15T07:26:35;15.77;;;9.38;;
75005;SDS011;63553;51.814;4.600;2023-02-15T07:29:01;17.73;;;10.20;;
75005;SDS011;63553;51.814;4.600;2023-02-15T07:31:26;17.10;;;9.65;;
75005;SDS011;63553;51.814;4.600;2023-02-15T07:33:51;13.85;;;9.25;;
75005;SDS011;63553;51.814;4.600;2023-02-15T07:36:17;14.23;;;9.07;;
75005;SDS011;63553;51.814;4.600;2023-02-15T07:38:42;13.55;;;9.00;;
75005;SDS011;63553;51.814;4.600;2023-02-15T07:41:12;13.20;;;8.60;;
75005;SDS011;63553;51.814;4.600;2023-02-15T07:43:40;14.07;;;9.23;;
75005;SDS011;63553;51.814;4.600;2023-02-15T07:46:11;15.27;;;9.02;;
75005;SDS011;63553;51.814;4.600;2023-02-15T07:48:40;16.77;;;10.30;;
75005;SDS011;63553;51.814;4.600;2023-02-15T07:51:06;15.07;;;9.45;;
75005;SDS011;63553;51.814;4.600;2023-02-15T07:53:33;17.17;;;10.30;;
75005;SDS011;63553;51.814;4.600;2023-02-15T07:55:59;19.42;;;9.95;;
75005;SDS011;63553;51.814;4.600;2023-02-15T07:58:25;14.02;;;8.85;;
75005;SDS011;63553;51.814;4.600;2023-02-15T08:01:11;16.23;;;9.68;;
75005;SDS011;63553;51.814;4.600;2023-02-15T08:03:39;15.90;;;9.65;;
75005;SDS011;63553;51.814;4.600;2023-02-15T08:06:04;13.30;;;8.45;;
75005;SDS011;63553;51.814;4.600;2023-02-15T08:08:34;12.27;;;7.63;;
75005;SDS011;63553;51.814;4.600;2023-02-15T08:13:49;12.05;;;7.50;;
75005;SDS011;63553;51.814;4.600;2023-02-15T08:16:38;12.60;;;7.70;;
75005;SDS011;63553;51.814;4.600;2023-02-15T08:19:16;16.10;;;8.05;;
75005;SDS011;63553;51.814;4.600;2023-02-15T08:21:44;18.23;;;8.70;;
75005;SDS011;63553;51.814;4.600;2023-02-15T08:24:12;21.73;;;10.52;;
75005;SDS011;63553;51.814;4.600;2023-02-15T08:26:38;17.73;;;8.30;;
75005;SDS011;63553;51.814;4.600;2023-02-15T08:29:04;19.88;;;8.95;;
75005;SDS011;63553;51.814;4.600;2023-02-15T08:31:32;14.98;;;8.93;;
75005;SDS011;63553;51.814;4.600;2023-02-15T08:33:58;16.05;;;8.23;;
75005;SDS011;63553;51.814;4.600;2023-02-15T08:36:24;12.32;;;7.88;;
75005;SDS011;63553;51.814;4.600;2023-02-15T08:38:52;14.27;;;8.20;;
75005;SDS011;63553;51.814;4.600;2023-02-15T08:43:44;13.18;;;8.73;;
75005;SDS011;63553;51.814;4.600;2023-02-15T08:46:12;11.35;;;8.50;;
75005;SDS011;63553;51.814;4.600;2023-02-15T08:48:43;11.98;;;7.65;;
75005;SDS011;63553;51.814;4.600;2023-02-15T08:51:10;14.18;;;8.18;;
75005;SDS011;63553;51.814;4.600;2023-02-15T08:53:41;10.93;;;7.80;;
75005;SDS011;63553;51.814;4.600;2023-02-15T08:56:09;11.02;;;7.60;;
75005;SDS011;63553;51.814;4.600;2023-02-15T08:58:35;14.02;;;7.97;;
75005;SDS011;63553;51.814;4.600;2023-02-15T09:01:01;12.35;;;8.52;;
75005;SDS011;63553;51.814;4.600;2023-02-15T09:03:32;16.90;;;9.20;;
75005;SDS011;63553;51.814;4.600;2023-02-15T09:05:59;13.75;;;8.70;;
75005;SDS011;63553;51.814;4.600;2023-02-15T09:08:26;13.05;;;8.35;;
75005;SDS011;63553;51.814;4.600;2023-02-15T09:11:03;13.43;;;8.65;;
75005;SDS011;63553;51.814;4.600;2023-02-15T09:13:37;14.35;;;9.25;;
75005;SDS011;63553;51.814;4.600;2023-02-15T09:16:04;13.65;;;8.80;;
75005;SDS011;63553;51.814;4.600;2023-02-15T09:18:32;19.83;;;10.95;;
75005;SDS011;63553;51.814;4.600;2023-02-15T09:21:03;15.82;;;10.73;;
75005;SDS011;63553;51.814;4.600;2023-02-15T09:23:32;21.13;;;12.70;;
75005;SDS011;63553;51.814;4.600;2023-02-15T09:26:01;20.35;;;12.63;;
75005;SDS011;63553;51.814;4.600;2023-02-15T09:28:28;20.65;;;12.35;;
75005;SDS011;63553;51.814;4.600;2023-02-15T09:30:53;15.35;;;8.80;;
75005;SDS011;63553;51.814;4.600;2023-02-15T09:33:18;13.30;;;9.57;;
75005;SDS011;63553;51.814;4.600;2023-02-15T09:35:44;14.13;;;10.18;;
75005;SDS011;63553;51.814;4.600;2023-02-15T09:38:09;14.00;;;9.97;;
75005;SDS011;63553;51.814;4.600;2023-02-15T09:40:38;14.55;;;8.30;;
75005;SDS011;63553;51.814;4.600;2023-02-15T09:43:35;12.88;;;8.95;;
75005;SDS011;63553;51.814;4.600;2023-02-15T09:46:38;11.70;;;8.48;;
75005;SDS011;63553;51.814;4.600;2023-02-15T09:49:40;13.98;;;9.07;;
75005;SDS011;63553;51.814;4.600;2023-02-15T09:52:24;12.15;;;9.25;;
75005;SDS011;63553;51.814;4.600;2023-02-15T09:55:15;19.23;;;10.20;;
75005;SDS011;63553;51.814;4.600;2023-02-15T10:05:37;12.87;;;9.20;;
75005;SDS011;63553;51.814;4.600;2023-02-15T10:10:57;14.65;;;8.98;;
75005;SDS011;63553;51.814;4.600;2023-02-15T10:22:11;19.23;;;9.90;;
75005;SDS011;63553;51.814;4.600;2023-02-15T10:27:37;15.48;;;9.63;;
75005;SDS011;63553;51.814;4.600;2023-02-15T10:33:55;17.27;;;10.32;;
75005;SDS011;63553;51.814;4.600;2023-02-15T10:36:16;16.70;;;10.73;;
75005;SDS011;63553;51.814;4.600;2023-02-15T10:38:52;16.00;;;10.90;;
75005;SDS011;63553;51.814;4.600;2023-02-15T10:41:46;16.08;;;11.00;;
75005;SDS011;63553;51.814;4.600;2023-02-15T10:49:46;13.70;;;9.50;;
75005;SDS011;63553;51.814;4.600;2023-02-15T10:52:17;14.95;;;9.65;;
75005;SDS011;63553;51.814;4.600;2023-02-15T11:06:49;14.48;;;9.82;;
75005;SDS011;63553;51.814;4.600;2023-02-15T11:09:19;15.35;;;10.23;;
75005;SDS011;63553;51.814;4.600;2023-02-15T11:11:51;15.30;;;10.30;;
75005;SDS011;63553;51.814;4.600;2023-02-15T11:17:23;14.52;;;9.77;;
75005;SDS011;63553;51.814;4.600;2023-02-15T11:22:33;15.50;;;9.50;;
75005;SDS011;63553;51.814;4.600;2023-02-15T11:25:00;13.82;;;9.18;;
75005;SDS011;63553;51.814;4.600;2023-02-15T11:27:31;12.55;;;9.23;;
75005;SDS011;63553;51.814;4.600;2023-02-15T11:30:09;12.35;;;9.02;;
75005;SDS011;63553;51.814;4.600;2023-02-15T11:32:47;14.98;;;8.85;;
75005;SDS011;63553;51.814;4.600;2023-02-15T11:35:32;12.55;;;8.45;;
75005;SDS011;63553;51.814;4.600;2023-02-15T11:38:24;13.27;;;8.98;;
75005;SDS011;63553;51.814;4.600;2023-02-15T11:41:02;11.85;;;8.98;;
75005;SDS011;63553;51.814;4.600;2023-02-15T11:45:56;14.63;;;9.67;;
75005;SDS011;63553;51.814;4.600;2023-02-15T11:48:22;14.73;;;9.93;;
75005;SDS011;63553;51.814;4.600;2023-02-15T11:50:47;12.90;;;8.60;;
75005;SDS011;63553;51.814;4.600;2023-02-15T11:53:20;12.07;;;8.52;;
75005;SDS011;63553;51.814;4.600;2023-02-15T11:55:50;13.63;;;9.48;;
75005;SDS011;63553;51.814;4.600;2023-02-15T11:58:23;13.68;;;8.88;;
75005;SDS011;63553;51.814;4.600;2023-02-15T12:01:00;13.32;;;9.10;;
75005;SDS011;63553;51.814;4.600;2023-02-15T12:06:01;14.00;;;9.07;;
75005;SDS011;63553;51.814;4.600;2023-02-15T12:08:37;12.30;;;9.35;;
75005;SDS011;63553;51.814;4.600;2023-02-15T12:11:20;16.00;;;9.75;;
75005;SDS011;63553;51.814;4.600;2023-02-15T12:13:55;14.98;;;9.23;;
75005;SDS011;63553;51.814;4.600;2023-02-15T12:16:26;10.88;;;7.97;;
75005;SDS011;63553;51.814;4.600;2023-02-15T12:18:56;14.15;;;9.52;;
75005;SDS011;63553;51.814;4.600;2023-02-15T12:23:55;13.43;;;8.57;;
75005;SDS011;63553;51.814;4.600;2023-02-15T12:26:24;11.40;;;8.45;;
75005;SDS011;63553;51.814;4.600;2023-02-15T12:29:07;12.70;;;8.38;;
75005;SDS011;63553;51.814;4.600;2023-02-15T12:31:44;13.45;;;8.90;;
75005;SDS011;63553;51.814;4.600;2023-02-15T12:34:13;12.30;;;9.20;;
75005;SDS011;63553;51.814;4.600;2023-02-15T12:36:47;13.50;;;9.05;;
75005;SDS011;63553;51.814;4.600;2023-02-15T12:39:20;13.15;;;8.07;;
75005;SDS011;63553;51.814;4.600;2023-02-15T12:44:20;14.30;;;9.18;;
75005;SDS011;63553;51.814;4.600;2023-02-15T12:49:21;13.68;;;8.48;;
75005;SDS011;63553;51.814;4.600;2023-02-15T12:54:39;12.73;;;9.13;;
75005;SDS011;63553;51.814;4.600;2023-02-15T12:59:47;13.13;;;8.52;;
75005;SDS011;63553;51.814;4.600;2023-02-15T13:02:16;13.30;;;8.93;;
75005;SDS011;63553;51.814;4.600;2023-02-15T13:04:47;13.65;;;8.95;;
75005;SDS011;63553;51.814;4.600;2023-02-15T13:07:14;13.57;;;9.07;;
75005;SDS011;63553;51.814;4.600;2023-02-15T13:09:39;11.48;;;8.18;;
75005;SDS011;63553;51.814;4.600;2023-02-15T13:12:10;14.27;;;9.50;;
75005;SDS011;63553;51.814;4.600;2023-02-15T13:17:13;12.68;;;8.45;;
75005;SDS011;63553;51.814;4.600;2023-02-15T13:19:42;11.95;;;8.65;;
75005;SDS011;63553;51.814;4.600;2023-02-15T13:22:20;14.48;;;9.02;;
75005;SDS011;63553;51.814;4.600;2023-02-15T13:24:51;14.15;;;9.07;;
75005;SDS011;63553;51.814;4.600;2023-02-15T13:27:21;14.65;;;8.70;;
75005;SDS011;63553;51.814;4.600;2023-02-15T13:29:56;12.50;;;8.65;;
75005;SDS011;63553;51.814;4.600;2023-02-15T13:34:57;21.45;;;12.57;;
75005;SDS011;63553;51.814;4.600;2023-02-15T13:40:09;31.67;;;17.23;;
75005;SDS011;63553;51.814;4.600;2023-02-15T13:42:41;26.92;;;15.98;;
75005;SDS011;63553;51.814;4.600;2023-02-15T13:45:30;22.92;;;12.95;;
75005;SDS011;63553;51.814;4.600;2023-02-15T13:53:49;72.22;;;28.52;;
75005;SDS011;63553;51.814;4.600;2023-02-15T13:56:43;51.90;;;24.80;;
75005;SDS011;63553;51.814;4.600;2023-02-15T14:05:39;93.63;;;39.15;;
75005;SDS011;63553;51.814;4.600;2023-02-15T14:10:57;52.03;;;26.40;;
75005;SDS011;63553;51.814;4.600;2023-02-15T14:18:53;78.18;;;31.70;;
75005;SDS011;63553;51.814;4.600;2023-02-15T14:21:32;73.65;;;34.10;;
75005;SDS011;63553;51.814;4.600;2023-02-15T14:24:12;86.00;;;36.55;;
75005;SDS011;63553;51.814;4.600;2023-02-15T14:26:47;46.90;;;22.08;;
75005;SDS011;63553;51.814;4.600;2023-02-15T14:34:55;75.75;;;30.77;;
75005;SDS011;63553;51.814;4.600;2023-02-15T14:45:56;57.40;;;24.90;;
75005;SDS011;63553;51.814;4.600;2023-02-15T14:48:30;71.05;;;27.63;;
75005;SDS011;63553;51.814;4.600;2023-02-15T14:50:58;61.58;;;26.92;;
75005;SDS011;63553;51.814;4.600;2023-02-15T14:58:32;57.70;;;27.65;;
75005;SDS011;63553;51.814;4.600;2023-02-15T15:01:03;73.43;;;30.85;;
75005;SDS011;63553;51.814;4.600;2023-02-15T15:03:32;51.30;;;23.77;;
75005;SDS011;63553;51.814;4.600;2023-02-15T15:06:00;57.10;;;25.63;;
75005;SDS011;63553;51.814;4.600;2023-02-15T15:08:36;48.38;;;23.30;;
75005;SDS011;63553;51.814;4.600;2023-02-15T15:14:00;62.35;;;26.98;;
75005;SDS011;63553;51.814;4.600;2023-02-15T15:16:29;64.22;;;28.75;;
75005;SDS011;63553;51.814;4.600;2023-02-15T15:18:55;44.78;;;22.77;;
75005;SDS011;63553;51.814;4.600;2023-02-15T15:30:01;41.75;;;22.02;;
75005;SDS011;63553;51.814;4.600;2023-02-15T15:32:28;54.67;;;27.70;;
75005;SDS011;63553;51.814;4.600;2023-02-15T15:35:44;56.95;;;27.27;;
75005;SDS011;63553;51.814;4.600;2023-02-15T15:40:54;53.13;;;26.42;;
75005;SDS011;63553;51.814;4.600;2023-02-15T15:49:18;73.60;;;49.17;;
75005;SDS011;63553;51.814;4.600;2023-02-15T15:51:45;51.33;;;28.05;;
75005;SDS011;63553;51.814;4.600;2023-02-15T15:54:15;40.22;;;21.17;;
75005;SDS011;63553;51.814;4.600;2023-02-15T15:56:43;44.28;;;26.05;;
75005;SDS011;63553;51.814;4.600;2023-02-15T15:59:14;48.75;;;25.08;;
75005;SDS011;63553;51.814;4.600;2023-02-15T16:01:44;45.85;;;22.80;;
75005;SDS011;63553;51.814;4.600;2023-02-15T16:04:11;42.45;;;23.17;;
75005;SDS011;63553;51.814;4.600;2023-02-15T16:06:39;41.72;;;22.33;;
75005;SDS011;63553;51.814;4.600;2023-02-15T16:11:43;44.55;;;21.75;;
75005;SDS011;63553;51.814;4.600;2023-02-15T16:14:12;41.28;;;21.13;;
75005;SDS011;63553;51.814;4.600;2023-02-15T16:16:41;44.40;;;21.17;;
75005;SDS011;63553;51.814;4.600;2023-02-15T16:19:20;41.53;;;21.35;;
75005;SDS011;63553;51.814;4.600;2023-02-15T16:21:48;47.25;;;24.75;;
75005;SDS011;63553;51.814;4.600;2023-02-15T16:24:25;37.28;;;20.40;;
75005;SDS011;63553;51.814;4.600;2023-02-15T16:29:30;37.47;;;20.27;;
75005;SDS011;63553;51.814;4.600;2023-02-15T16:32:01;40.72;;;18.88;;
75005;SDS011;63553;51.814;4.600;2023-02-15T16:34:31;36.80;;;20.85;;
75005;SDS011;63553;51.814;4.600;2023-02-15T16:37:13;42.17;;;20.27;;
75005;SDS011;63553;51.814;4.600;2023-02-15T16:39:43;39.17;;;19.67;;
75005;SDS011;63553;51.814;4.600;2023-02-15T16:42:12;39.65;;;19.50;;
75005;SDS011;63553;51.814;4.600;2023-02-15T16:44:40;35.72;;;18.98;;
75005;SDS011;63553;51.814;4.600;2023-02-15T16:47:07;39.20;;;19.23;;
75005;SDS011;63553;51.814;4.600;2023-02-15T16:49:41;37.28;;;19.42;;
75005;SDS011;63553;51.814;4.600;2023-02-15T16:52:11;34.58;;;18.92;;
75005;SDS011;63553;51.814;4.600;2023-02-15T16:54:43;38.28;;;18.85;;
75005;SDS011;63553;51.814;4.600;2023-02-15T16:57:18;35.70;;;18.25;;
75005;SDS011;63553;51.814;4.600;2023-02-15T16:59:47;39.15;;;17.58;;
75005;SDS011;63553;51.814;4.600;2023-02-15T17:02:19;40.67;;;19.67;;
75005;SDS011;63553;51.814;4.600;2023-02-15T17:05:06;40.25;;;19.95;;
75005;SDS011;63553;51.814;4.600;2023-02-15T17:07:41;40.17;;;20.02;;
75005;SDS011;63553;51.814;4.600;2023-02-15T17:10:26;40.53;;;22.08;;
75005;SDS011;63553;51.814;4.600;2023-02-15T17:13:02;41.85;;;24.05;;
75005;SDS011;63553;51.814;4.600;2023-02-15T17:15:35;34.47;;;19.05;;
75005;SDS011;63553;51.814;4.600;2023-02-15T17:18:03;36.42;;;19.88;;
75005;SDS011;63553;51.814;4.600;2023-02-15T17:20:45;38.20;;;18.45;;
75005;SDS011;63553;51.814;4.600;2023-02-15T17:25:52;37.50;;;18.85;;
75005;SDS011;63553;51.814;4.600;2023-02-15T17:28:19;41.13;;;20.10;;
75005;SDS011;63553;51.814;4.600;2023-02-15T17:30:47;37.08;;;19.13;;
75005;SDS011;63553;51.814;4.600;2023-02-15T17:33:25;35.25;;;18.48;;
75005;SDS011;63553;51.814;4.600;2023-02-15T17:36:04;44.88;;;22.45;;
75005;SDS011;63553;51.814;4.600;2023-02-15T17:41:21;41.10;;;19.67;;
75005;SDS011;63553;51.814;4.600;2023-02-15T17:43:46;44.10;;;23.13;;
75005;SDS011;63553;51.814;4.600;2023-02-15T17:46:12;41.57;;;21.30;;
75005;SDS011;63553;51.814;4.600;2023-02-15T17:48:40;37.35;;;20.17;;
75005;SDS011;63553;51.814;4.600;2023-02-15T17:51:07;42.78;;;20.00;;
75005;SDS011;63553;51.814;4.600;2023-02-15T17:53:37;39.45;;;19.70;;